Logo AVAMET
Benvolgut visitant, si us plau, ingressa Recuperar contrasenya

Pedreguer Ocaive

Dades diàries. Acumulats / Últims 30 dies disponibles

Data Temperatura (°C) Humitat rel. (%) Pressió rel. (hPa) Vent (km/h) Precipitació
Mínima Mitjana Màxima Amplitud
tèrmica
Mínima Mitjana Màxima Mínima Mitjana Màxima Predom. Mitjana Ràfega
màxima
Total
(mm)
Índex-n
Mínima Mitjana Màxima Mínima Mitjana Màxima n
0 a 1
P0 max
mm 5'
Dades mensuals acumulades fins l'últim dia disponible
05/2019 8,2 12,8 21,4 18,2 18,9 23,1 29,9 21,7 27 69 96 1.002 1.014 1.024   5,5 59,5 2,4
Dades anuals acumulades fins l'últim dia disponible
2019 1,2 8,9 21,4 13,7 10,6 18,7 29,9 28,7 0 63 99 0 968 1.036   4,9 64,4 342,2
Últims 30 dies disponibles
23-05-2019 12,6     20,7     27,8 15,2 27 55 88 1.013 1.016 1.018 S 4,9 35,4 0,0
22-05-2019 11,9     18,8     24,6 12,7 49 72 93 1.016 1.017 1.019 SW 5,8 43,5 0,0
21-05-2019 13,3     17,4     22,1 8,8 49 80 93 1.013 1.015 1.017 SW 4,0 35,4 0,2
20-05-2019 11,4     17,5     22,5 11,1 30 63 83 1.012 1.012 1.014 SW 6,4 32,2 0,0
19-05-2019 10,6     17,1     22,2 11,6 36 69 94 1.009 1.010 1.012 SW 4,3 27,4 0,0
18-05-2019 12,3     15,8     19,6 7,3 53 65 79 1.008 1.009 1.010 SW 3,1 24,1 0,8
17-05-2019 14,3     19,2     24,3 10,0 31 54 89 1.002 1.005 1.010 SO 7,7 59,5 0,0
16-05-2019 15,2     18,1     21,7 6,5 63 78 93 1.005 1.011 1.015 SSW 7,6 43,5 0,0
15-05-2019 12,2     17,7     22,1 9,9 54 72 86 1.011 1.012 1.015 SW 3,9 22,5 0,0
14-05-2019 10,9     18,6     24,7 13,8 32 59 91 1.013 1.018 1.021 SW 5,8 46,7 0,0
13-05-2019 13,0     18,8     23,1 10,1 52 69 92 1.018 1.020 1.021 SE 6,1 32,2 0,0
12-05-2019 13,5     18,3     22,9 9,4 58 76 96 1.019 1.022 1.024 SW 4,0 32,2 0,0
11-05-2019 16,2     20,7     24,3 8,1 48 68 83 1.014 1.018 1.023 SW 5,5 25,7 0,0
10-05-2019 19,1     25,1     29,5 10,4 35 52 71 1.011 1.013 1.014 SW 5,8 29,0 0,0
09-05-2019 21,4     23,7     26,6 5,2 45 53 62 1.011 1.012 1.014 WSW 9,8 40,2 0,0
08-05-2019 12,1     22,1     29,9 17,8 33 62 96 1.009 1.012 1.015 SW 5,1 33,8 0,0
07-05-2019 13,1     19,0     25,1 12,0 46 75 95 1.013 1.016 1.019 SE 4,0 33,8 0,0
06-05-2019 10,1     15,1     20,8 10,7 67 84 96 1.016 1.018 1.020 SW 4,8 40,2 0,0
05-05-2019 10,3     15,1     19,2 8,9 45 68 90 1.012 1.015 1.017 SW 5,6 41,8 0,0
04-05-2019 8,2     14,4     19,0 10,8 50 73 95 1.010 1.013 1.014 SW 6,1 40,2 0,2
03-05-2019 9,8     13,8     18,9 9,1 56 83 95 1.010 1.012 1.015 SW 5,1 30,6 1,2 0,20
02-05-2019 11,8     15,6     18,9 7,1 59 79 93 1.014 1.015 1.016 NE 3,4 29,0 0,0
01-05-2019 11,9     16,6     20,7 8,8 39 69 94 1.012 1.015 1.017 SE 6,6 48,3 0,0
30-04-2019 11,9     16,7     20,1 8,2 61 78 92 1.015 1.017 1.019 SE 6,4 41,8 0,0
29-04-2019 11,2     15,2     19,4 8,2 0 0 0 0 0 0 SW 6,4 40,2 0,0
28-04-2019 10,4     16,8     22,8 12,4 0 0 0 0 0 0 SW 4,5 30,6 0,0
27-04-2019 9,9     16,6     21,8 11,9 0 0 0 0 0 0 SW 4,8 29,0 0,0
26-04-2019 12,2     16,8     21,2 9,0 0 0 0 0 0 0 SW 7,1 40,2 0,0
25-04-2019 15,2     18,4     20,4 5,2 0 0 0 0 0 0 NE 7,6 35,4 0,0
24-04-2019 7,5     15,0     20,1 12,6 0 0 0 0 0 0 SW 8,0 43,5 0,0
Últims 13 mesos disponibles
04/2019 7,4 10,4 13,1 14,6 13,9 18,7 27,8 20,4 38 72 97 1.002 1.013 1.019 SW 5,8 56,3 199,2
03/2019 6,1 8,7 14,6 14,0 12,8 19,1 27,7 21,6 37 62 93 1.010 1.023 1.030 SW 4,6 57,9 58,0
02/2019 2,8 6,8 11,4 11,2 12,1 15,7 23,3 20,5 35 66 87 996 1.024 1.034 SW 4,7 64,4 0,0
01/2019 1,2 6,6 14,1 10,8 10,6 15,9 20,9 19,7 38 64 90 1.003 1.020 1.031 SW 4,6 59,5 6,4
12/2018 4,8 8,2 11,6 12,6 12,1 18,5 23,9 19,1 49 74 95 1.009 1.025 1.031 SW 2,7 53,1 36,6
11/2018 6,4 11,3 16,2 14,7 13,9 18,6 24,2 17,8 48 73 95 1.001 1.015 1.023 SW 3,7 69,2 133,8
10/2018 8,8 14,6 18,9 18,4 14,4 22,8 27,7 18,9 40 74 92 1.000 1.014 1.025 4,0 62,8 94,6
09/2018 15,1 20,2 22,7 23,7 24,3 27,8 32,4 17,3 4,0 48,3 67,8
08/2018 18,5 22,0 25,9 26,8 25,9 31,3 36,4 17,9 5,3 48,3 39,6
07/2018 19,5 21,5 24,7 26,8 27,7 31,9 35,8 16,3 6,1 48,3 2,2
06/2018 13,2 17,7 21,7 23,2 22,9 27,9 32,4 19,2 5,7 48,3 34,0
05/2018 7,8 13,3 17,1 18,6 16,3 23,5 27,7 19,9 5,1 46,7 4,8
04/2018 6,7 11,1 15,6 15,8 13,9 20,2 28,2 21,5 6,1 72,4 13,0
Tots els anys disponibles
2018 0,7 13,7 25,9 18,2 7,8 22,8 36,4 35,7 40 74 95 1.000 1.019 1.031 SW 5,0 72,4 601,8
2017 0,6 13,3 26,7 18,1 8,1 22,9 37,1 36,5 4,9 77,2 633,0
2016 1,3 13,8 24,5 18,3 7,8 22,8 39,1 37,8 5,5 70,8 446,8
2015 0,8 14,4 25,3 18,9 8,3 23,6 40,7 39,9 5,1 99,8 490,0
Temperatura (°C)
Humitat relativa (%)
Velocitat del vent i ràfega màxima (km/h)
Direcció del vent (°)
Pressió (hPa)
Precipitació (mm)
Nota sobre les dades: s'avisa a l'usuari de la provisionalitat i no oficialitat d'aquestes dades
Logo AVAMET blanc
Web allotjada a Sollutia
Llicència de Creative CommonsLa web d'AVAMET i els seus continguts estan subjectes a una llicència de
Reconeixement - No Comercial - Compartir igual
Properes estacions: Altea - Club Nàutic d'Altea (Soci), Ontinyent - El Pilar (Soci), Ares del Maestrat (Ajuntament Soci), Catadau - L'Altet (Inforatge)     - - - - -      Últimes estacions: Jacarilla - centro (MeteOrihuela), Elx - Maitino/Vallverda/Velarde/Matola/Ferriol (Soci TiempoElche.com), Orihuela - Playa Flamenca (MeteOrihuela), Puçol - Ciutat Jardí (Soci), Alzira - La Casella (Soci) - - -